sensor_id;sensor_type;location;lat;lon;timestamp;P1;durP1;ratioP1;P2;durP2;ratioP2
11000;SDS011;5553;48.506;8.870;2023-06-01T00:00:48;7.30;;;4.93;;
11000;SDS011;5553;48.506;8.870;2023-06-01T00:03:16;6.93;;;4.30;;
11000;SDS011;5553;48.506;8.870;2023-06-01T00:05:44;8.33;;;4.93;;
11000;SDS011;5553;48.506;8.870;2023-06-01T00:08:12;4.20;;;3.80;;
11000;SDS011;5553;48.506;8.870;2023-06-01T00:10:41;5.37;;;4.73;;
11000;SDS011;5553;48.506;8.870;2023-06-01T00:13:12;5.47;;;4.30;;
11000;SDS011;5553;48.506;8.870;2023-06-01T00:15:40;5.30;;;4.80;;
11000;SDS011;5553;48.506;8.870;2023-06-01T00:18:08;5.00;;;3.40;;
11000;SDS011;5553;48.506;8.870;2023-06-01T00:20:37;8.90;;;4.67;;
11000;SDS011;5553;48.506;8.870;2023-06-01T00:23:06;5.90;;;4.13;;
11000;SDS011;5553;48.506;8.870;2023-06-01T00:25:35;6.97;;;3.70;;
11000;SDS011;5553;48.506;8.870;2023-06-01T00:28:03;5.00;;;4.50;;
11000;SDS011;5553;48.506;8.870;2023-06-01T00:30:34;5.40;;;4.20;;
11000;SDS011;5553;48.506;8.870;2023-06-01T00:33:03;7.80;;;4.90;;
11000;SDS011;5553;48.506;8.870;2023-06-01T00:35:31;5.53;;;4.73;;
11000;SDS011;5553;48.506;8.870;2023-06-01T00:37:59;8.40;;;4.93;;
11000;SDS011;5553;48.506;8.870;2023-06-01T00:40:27;9.50;;;4.50;;
11000;SDS011;5553;48.506;8.870;2023-06-01T00:42:56;8.17;;;3.70;;
11000;SDS011;5553;48.506;8.870;2023-06-01T00:45:24;7.20;;;4.90;;
11000;SDS011;5553;48.506;8.870;2023-06-01T00:47:55;5.00;;;4.50;;
11000;SDS011;5553;48.506;8.870;2023-06-01T00:50:24;5.87;;;4.50;;
11000;SDS011;5553;48.506;8.870;2023-06-01T00:52:52;5.17;;;4.33;;
11000;SDS011;5553;48.506;8.870;2023-06-01T00:55:21;8.80;;;5.37;;
11000;SDS011;5553;48.506;8.870;2023-06-01T00:57:50;6.63;;;4.93;;
11000;SDS011;5553;48.506;8.870;2023-06-01T01:00:19;6.67;;;4.90;;
11000;SDS011;5553;48.506;8.870;2023-06-01T01:02:48;8.87;;;4.17;;
11000;SDS011;5553;48.506;8.870;2023-06-01T01:05:19;7.10;;;4.70;;
11000;SDS011;5553;48.506;8.870;2023-06-01T01:07:53;8.60;;;4.93;;
11000;SDS011;5553;48.506;8.870;2023-06-01T01:10:29;5.30;;;4.67;;
11000;SDS011;5553;48.506;8.870;2023-06-01T01:13:02;5.00;;;4.40;;
11000;SDS011;5553;48.506;8.870;2023-06-01T01:15:38;5.70;;;4.73;;
11000;SDS011;5553;48.506;8.870;2023-06-01T01:18:15;4.97;;;3.50;;
11000;SDS011;5553;48.506;8.870;2023-06-01T01:20:51;7.03;;;5.40;;
11000;SDS011;5553;48.506;8.870;2023-06-01T01:26:42;5.30;;;3.90;;
11000;SDS011;5553;48.506;8.870;2023-06-01T01:29:23;6.70;;;4.50;;
11000;SDS011;5553;48.506;8.870;2023-06-01T01:31:53;5.63;;;4.10;;
11000;SDS011;5553;48.506;8.870;2023-06-01T01:34:23;5.23;;;4.50;;
11000;SDS011;5553;48.506;8.870;2023-06-01T01:36:55;7.53;;;5.10;;
11000;SDS011;5553;48.506;8.870;2023-06-01T01:39:23;8.30;;;5.80;;
11000;SDS011;5553;48.506;8.870;2023-06-01T01:41:51;8.60;;;5.13;;
11000;SDS011;5553;48.506;8.870;2023-06-01T01:44:22;6.77;;;4.60;;
11000;SDS011;5553;48.506;8.870;2023-06-01T01:46:52;5.93;;;4.43;;
11000;SDS011;5553;48.506;8.870;2023-06-01T01:49:27;7.90;;;4.80;;
11000;SDS011;5553;48.506;8.870;2023-06-01T01:52:01;8.00;;;5.47;;
11000;SDS011;5553;48.506;8.870;2023-06-01T01:54:34;7.80;;;4.70;;
11000;SDS011;5553;48.506;8.870;2023-06-01T01:57:05;6.67;;;5.00;;
11000;SDS011;5553;48.506;8.870;2023-06-01T01:59:38;9.07;;;4.70;;
11000;SDS011;5553;48.506;8.870;2023-06-01T02:02:07;7.27;;;4.90;;
11000;SDS011;5553;48.506;8.870;2023-06-01T02:04:37;7.00;;;4.83;;
11000;SDS011;5553;48.506;8.870;2023-06-01T02:07:07;6.23;;;5.37;;
11000;SDS011;5553;48.506;8.870;2023-06-01T02:09:35;9.07;;;5.43;;
11000;SDS011;5553;48.506;8.870;2023-06-01T02:12:04;6.03;;;4.57;;
11000;SDS011;5553;48.506;8.870;2023-06-01T02:14:33;8.40;;;5.43;;
11000;SDS011;5553;48.506;8.870;2023-06-01T02:17:04;6.53;;;4.60;;
11000;SDS011;5553;48.506;8.870;2023-06-01T02:19:33;8.40;;;4.90;;
11000;SDS011;5553;48.506;8.870;2023-06-01T02:22:01;7.67;;;4.90;;
11000;SDS011;5553;48.506;8.870;2023-06-01T02:24:29;5.07;;;4.10;;
11000;SDS011;5553;48.506;8.870;2023-06-01T02:26:58;6.23;;;4.40;;
11000;SDS011;5553;48.506;8.870;2023-06-01T02:29:27;5.50;;;4.40;;
11000;SDS011;5553;48.506;8.870;2023-06-01T02:31:55;8.17;;;5.00;;
11000;SDS011;5553;48.506;8.870;2023-06-01T02:34:26;6.83;;;5.63;;
11000;SDS011;5553;48.506;8.870;2023-06-01T02:36:55;10.67;;;5.90;;
11000;SDS011;5553;48.506;8.870;2023-06-01T02:39:24;7.20;;;5.80;;
11000;SDS011;5553;48.506;8.870;2023-06-01T02:41:52;8.57;;;5.30;;
11000;SDS011;5553;48.506;8.870;2023-06-01T02:44:20;8.83;;;5.20;;
11000;SDS011;5553;48.506;8.870;2023-06-01T02:46:49;7.43;;;4.83;;
11000;SDS011;5553;48.506;8.870;2023-06-01T02:49:17;5.60;;;4.70;;
11000;SDS011;5553;48.506;8.870;2023-06-01T02:51:48;6.77;;;4.83;;
11000;SDS011;5553;48.506;8.870;2023-06-01T02:54:16;6.60;;;5.07;;
11000;SDS011;5553;48.506;8.870;2023-06-01T02:56:44;8.33;;;5.03;;
11000;SDS011;5553;48.506;8.870;2023-06-01T02:59:13;7.77;;;5.33;;
11000;SDS011;5553;48.506;8.870;2023-06-01T03:01:41;7.33;;;4.73;;
11000;SDS011;5553;48.506;8.870;2023-06-01T03:04:10;7.03;;;5.10;;
11000;SDS011;5553;48.506;8.870;2023-06-01T03:06:38;5.70;;;4.63;;
11000;SDS011;5553;48.506;8.870;2023-06-01T03:09:11;6.90;;;4.77;;
11000;SDS011;5553;48.506;8.870;2023-06-01T03:11:41;5.30;;;4.47;;
11000;SDS011;5553;48.506;8.870;2023-06-01T03:14:10;7.20;;;5.37;;
11000;SDS011;5553;48.506;8.870;2023-06-01T03:16:38;3.93;;;3.53;;
11000;SDS011;5553;48.506;8.870;2023-06-01T03:19:06;6.37;;;5.10;;
11000;SDS011;5553;48.506;8.870;2023-06-01T03:21:35;7.20;;;4.77;;
11000;SDS011;5553;48.506;8.870;2023-06-01T03:24:03;5.80;;;4.60;;
11000;SDS011;5553;48.506;8.870;2023-06-01T03:26:34;8.33;;;5.60;;
11000;SDS011;5553;48.506;8.870;2023-06-01T03:29:03;7.93;;;5.90;;
11000;SDS011;5553;48.506;8.870;2023-06-01T03:31:31;6.33;;;5.70;;
11000;SDS011;5553;48.506;8.870;2023-06-01T03:34:01;6.53;;;5.83;;
11000;SDS011;5553;48.506;8.870;2023-06-01T03:36:29;6.80;;;5.60;;
11000;SDS011;5553;48.506;8.870;2023-06-01T03:38:58;7.80;;;5.30;;
11000;SDS011;5553;48.506;8.870;2023-06-01T03:41:26;9.90;;;6.37;;
11000;SDS011;5553;48.506;8.870;2023-06-01T03:43:57;8.63;;;6.07;;
11000;SDS011;5553;48.506;8.870;2023-06-01T03:46:25;10.03;;;5.67;;
11000;SDS011;5553;48.506;8.870;2023-06-01T03:48:53;8.00;;;5.17;;
11000;SDS011;5553;48.506;8.870;2023-06-01T03:51:22;7.17;;;5.77;;
11000;SDS011;5553;48.506;8.870;2023-06-01T03:53:50;14.60;;;5.33;;
11000;SDS011;5553;48.506;8.870;2023-06-01T03:56:19;6.90;;;5.33;;
11000;SDS011;5553;48.506;8.870;2023-06-01T03:58:47;8.20;;;5.27;;
11000;SDS011;5553;48.506;8.870;2023-06-01T04:01:18;8.60;;;5.00;;
11000;SDS011;5553;48.506;8.870;2023-06-01T04:03:47;10.43;;;4.93;;
11000;SDS011;5553;48.506;8.870;2023-06-01T04:06:16;7.17;;;4.77;;
11000;SDS011;5553;48.506;8.870;2023-06-01T04:08:45;5.53;;;5.00;;
11000;SDS011;5553;48.506;8.870;2023-06-01T04:11:20;6.53;;;5.30;;
11000;SDS011;5553;48.506;8.870;2023-06-01T04:13:50;5.97;;;4.87;;
11000;SDS011;5553;48.506;8.870;2023-06-01T04:16:21;6.57;;;5.10;;
11000;SDS011;5553;48.506;8.870;2023-06-01T04:18:49;9.67;;;5.37;;
11000;SDS011;5553;48.506;8.870;2023-06-01T04:21:19;13.47;;;6.00;;
11000;SDS011;5553;48.506;8.870;2023-06-01T04:23:47;8.93;;;5.27;;
11000;SDS011;5553;48.506;8.870;2023-06-01T04:26:19;9.30;;;6.20;;
11000;SDS011;5553;48.506;8.870;2023-06-01T04:28:47;8.03;;;5.00;;
11000;SDS011;5553;48.506;8.870;2023-06-01T04:31:15;6.80;;;4.90;;
11000;SDS011;5553;48.506;8.870;2023-06-01T04:33:47;12.93;;;5.07;;
11000;SDS011;5553;48.506;8.870;2023-06-01T04:36:17;8.93;;;5.30;;
11000;SDS011;5553;48.506;8.870;2023-06-01T04:38:46;5.73;;;5.13;;
11000;SDS011;5553;48.506;8.870;2023-06-01T04:41:16;6.30;;;5.00;;
11000;SDS011;5553;48.506;8.870;2023-06-01T04:43:45;7.57;;;5.30;;
11000;SDS011;5553;48.506;8.870;2023-06-01T04:46:17;9.10;;;6.17;;
11000;SDS011;5553;48.506;8.870;2023-06-01T04:48:48;9.07;;;6.53;;
11000;SDS011;5553;48.506;8.870;2023-06-01T04:51:17;8.60;;;6.17;;
11000;SDS011;5553;48.506;8.870;2023-06-01T04:53:47;12.40;;;6.10;;
11000;SDS011;5553;48.506;8.870;2023-06-01T04:56:20;8.87;;;6.40;;
11000;SDS011;5553;48.506;8.870;2023-06-01T04:58:52;9.50;;;6.60;;
11000;SDS011;5553;48.506;8.870;2023-06-01T05:01:21;7.80;;;5.97;;
11000;SDS011;5553;48.506;8.870;2023-06-01T05:03:52;9.63;;;5.93;;
11000;SDS011;5553;48.506;8.870;2023-06-01T05:06:22;7.83;;;6.10;;
11000;SDS011;5553;48.506;8.870;2023-06-01T05:08:51;6.23;;;5.63;;
11000;SDS011;5553;48.506;8.870;2023-06-01T05:11:19;7.33;;;5.30;;
11000;SDS011;5553;48.506;8.870;2023-06-01T05:13:47;6.70;;;5.17;;
11000;SDS011;5553;48.506;8.870;2023-06-01T05:16:16;7.53;;;5.30;;
11000;SDS011;5553;48.506;8.870;2023-06-01T05:18:44;6.20;;;5.27;;
11000;SDS011;5553;48.506;8.870;2023-06-01T05:21:16;7.60;;;5.63;;
11000;SDS011;5553;48.506;8.870;2023-06-01T05:23:44;10.37;;;6.00;;
11000;SDS011;5553;48.506;8.870;2023-06-01T05:26:13;8.40;;;6.33;;
11000;SDS011;5553;48.506;8.870;2023-06-01T05:28:41;8.90;;;5.70;;
11000;SDS011;5553;48.506;8.870;2023-06-01T05:31:10;8.27;;;5.87;;
11000;SDS011;5553;48.506;8.870;2023-06-01T05:33:38;7.93;;;5.73;;
11000;SDS011;5553;48.506;8.870;2023-06-01T05:36:07;8.50;;;5.90;;
11000;SDS011;5553;48.506;8.870;2023-06-01T05:38:38;8.63;;;5.70;;
11000;SDS011;5553;48.506;8.870;2023-06-01T05:41:07;8.47;;;5.80;;
11000;SDS011;5553;48.506;8.870;2023-06-01T05:43:35;8.13;;;5.90;;
11000;SDS011;5553;48.506;8.870;2023-06-01T05:46:03;12.43;;;6.77;;
11000;SDS011;5553;48.506;8.870;2023-06-01T05:48:32;6.60;;;5.93;;
11000;SDS011;5553;48.506;8.870;2023-06-01T05:51:00;6.90;;;5.50;;
11000;SDS011;5553;48.506;8.870;2023-06-01T05:53:28;8.53;;;5.70;;
11000;SDS011;5553;48.506;8.870;2023-06-01T05:55:59;8.33;;;5.60;;
11000;SDS011;5553;48.506;8.870;2023-06-01T05:58:27;14.57;;;6.70;;
11000;SDS011;5553;48.506;8.870;2023-06-01T06:00:55;11.03;;;6.07;;
11000;SDS011;5553;48.506;8.870;2023-06-01T06:03:24;9.23;;;5.43;;
11000;SDS011;5553;48.506;8.870;2023-06-01T06:05:52;8.20;;;5.13;;
11000;SDS011;5553;48.506;8.870;2023-06-01T06:08:21;5.33;;;4.50;;
11000;SDS011;5553;48.506;8.870;2023-06-01T06:10:49;11.03;;;5.37;;
11000;SDS011;5553;48.506;8.870;2023-06-01T06:13:20;7.97;;;4.90;;
11000;SDS011;5553;48.506;8.870;2023-06-01T06:15:48;7.23;;;5.50;;
11000;SDS011;5553;48.506;8.870;2023-06-01T06:18:16;7.50;;;5.20;;
11000;SDS011;5553;48.506;8.870;2023-06-01T06:20:45;7.87;;;5.77;;
11000;SDS011;5553;48.506;8.870;2023-06-01T06:23:13;9.83;;;4.27;;
11000;SDS011;5553;48.506;8.870;2023-06-01T06:25:41;9.93;;;5.13;;
11000;SDS011;5553;48.506;8.870;2023-06-01T06:28:10;12.80;;;4.40;;
11000;SDS011;5553;48.506;8.870;2023-06-01T06:30:40;4.13;;;3.73;;
11000;SDS011;5553;48.506;8.870;2023-06-01T06:33:09;5.70;;;4.47;;
11000;SDS011;5553;48.506;8.870;2023-06-01T06:35:37;5.40;;;4.50;;
11000;SDS011;5553;48.506;8.870;2023-06-01T06:38:06;5.63;;;4.70;;
11000;SDS011;5553;48.506;8.870;2023-06-01T06:40:34;5.97;;;3.83;;
11000;SDS011;5553;48.506;8.870;2023-06-01T06:43:03;5.80;;;4.40;;
11000;SDS011;5553;48.506;8.870;2023-06-01T06:45:31;5.20;;;3.90;;
11000;SDS011;5553;48.506;8.870;2023-06-01T06:48:02;9.10;;;4.47;;
11000;SDS011;5553;48.506;8.870;2023-06-01T06:50:30;7.70;;;4.37;;
11000;SDS011;5553;48.506;8.870;2023-06-01T06:52:59;8.47;;;4.43;;
11000;SDS011;5553;48.506;8.870;2023-06-01T06:55:27;5.57;;;4.37;;
11000;SDS011;5553;48.506;8.870;2023-06-01T06:57:56;6.50;;;4.53;;
11000;SDS011;5553;48.506;8.870;2023-06-01T07:00:24;11.23;;;5.53;;
11000;SDS011;5553;48.506;8.870;2023-06-01T07:02:52;6.03;;;4.23;;
11000;SDS011;5553;48.506;8.870;2023-06-01T07:05:23;4.63;;;4.13;;
11000;SDS011;5553;48.506;8.870;2023-06-01T07:07:51;7.30;;;4.83;;
11000;SDS011;5553;48.506;8.870;2023-06-01T07:10:20;6.07;;;3.93;;
11000;SDS011;5553;48.506;8.870;2023-06-01T07:12:48;8.57;;;3.97;;
11000;SDS011;5553;48.506;8.870;2023-06-01T07:15:16;6.80;;;4.43;;
11000;SDS011;5553;48.506;8.870;2023-06-01T07:17:45;5.00;;;4.40;;
11000;SDS011;5553;48.506;8.870;2023-06-01T07:20:13;6.23;;;4.27;;
11000;SDS011;5553;48.506;8.870;2023-06-01T07:22:44;6.67;;;4.60;;
11000;SDS011;5553;48.506;8.870;2023-06-01T07:25:12;6.20;;;4.40;;
11000;SDS011;5553;48.506;8.870;2023-06-01T07:27:41;6.33;;;4.10;;
11000;SDS011;5553;48.506;8.870;2023-06-01T07:30:11;6.90;;;4.60;;
11000;SDS011;5553;48.506;8.870;2023-06-01T07:32:40;6.83;;;4.57;;
11000;SDS011;5553;48.506;8.870;2023-06-01T07:35:08;6.87;;;4.87;;
11000;SDS011;5553;48.506;8.870;2023-06-01T07:37:37;6.67;;;4.67;;
11000;SDS011;5553;48.506;8.870;2023-06-01T07:40:09;7.00;;;5.10;;
11000;SDS011;5553;48.506;8.870;2023-06-01T07:42:38;9.37;;;4.87;;
11000;SDS011;5553;48.506;8.870;2023-06-01T07:45:07;4.03;;;3.73;;
11000;SDS011;5553;48.506;8.870;2023-06-01T07:47:36;6.83;;;4.87;;
11000;SDS011;5553;48.506;8.870;2023-06-01T07:50:05;9.13;;;5.30;;
11000;SDS011;5553;48.506;8.870;2023-06-01T07:52:34;5.63;;;5.00;;
11000;SDS011;5553;48.506;8.870;2023-06-01T07:55:03;7.63;;;5.77;;
11000;SDS011;5553;48.506;8.870;2023-06-01T07:57:37;6.80;;;5.70;;
11000;SDS011;5553;48.506;8.870;2023-06-01T08:00:06;9.10;;;5.30;;
11000;SDS011;5553;48.506;8.870;2023-06-01T08:02:37;6.50;;;5.40;;
11000;SDS011;5553;48.506;8.870;2023-06-01T08:05:07;9.30;;;5.60;;
11000;SDS011;5553;48.506;8.870;2023-06-01T08:07:36;8.80;;;5.93;;
11000;SDS011;5553;48.506;8.870;2023-06-01T08:10:05;8.60;;;5.67;;
11000;SDS011;5553;48.506;8.870;2023-06-01T08:12:37;7.73;;;5.70;;
11000;SDS011;5553;48.506;8.870;2023-06-01T08:15:07;6.93;;;6.23;;
11000;SDS011;5553;48.506;8.870;2023-06-01T08:17:37;6.67;;;5.00;;
11000;SDS011;5553;48.506;8.870;2023-06-01T08:20:06;9.60;;;5.97;;
11000;SDS011;5553;48.506;8.870;2023-06-01T08:22:37;7.97;;;5.70;;
11000;SDS011;5553;48.506;8.870;2023-06-01T08:25:06;9.87;;;6.77;;
11000;SDS011;5553;48.506;8.870;2023-06-01T08:27:37;9.13;;;5.53;;
11000;SDS011;5553;48.506;8.870;2023-06-01T08:30:07;7.67;;;5.63;;
11000;SDS011;5553;48.506;8.870;2023-06-01T08:32:36;8.77;;;6.47;;
11000;SDS011;5553;48.506;8.870;2023-06-01T08:35:05;6.70;;;5.90;;
11000;SDS011;5553;48.506;8.870;2023-06-01T08:37:34;7.33;;;5.90;;
11000;SDS011;5553;48.506;8.870;2023-06-01T08:40:03;6.73;;;5.70;;
11000;SDS011;5553;48.506;8.870;2023-06-01T08:42:39;6.47;;;5.83;;
11000;SDS011;5553;48.506;8.870;2023-06-01T12:34:31;7.97;;;7.00;;
11000;SDS011;5553;48.506;8.870;2023-06-01T12:37:37;8.13;;;7.33;;
11000;SDS011;5553;48.506;8.870;2023-06-01T12:47:20;8.80;;;6.07;;
11000;SDS011;5553;48.506;8.870;2023-06-01T17:08:34;5.10;;;4.20;;
11000;SDS011;5553;48.506;8.870;2023-06-01T17:11:37;10.50;;;5.10;;
11000;SDS011;5553;48.506;8.870;2023-06-01T17:14:19;6.90;;;4.13;;
11000;SDS011;5553;48.506;8.870;2023-06-01T17:17:06;4.53;;;4.13;;
11000;SDS011;5553;48.506;8.870;2023-06-01T17:19:56;4.90;;;4.10;;
11000;SDS011;5553;48.506;8.870;2023-06-01T17:22:30;4.40;;;4.00;;
11000;SDS011;5553;48.506;8.870;2023-06-01T17:25:10;5.57;;;3.57;;
11000;SDS011;5553;48.506;8.870;2023-06-01T17:27:42;4.70;;;3.80;;
11000;SDS011;5553;48.506;8.870;2023-06-01T17:30:16;4.00;;;3.60;;
11000;SDS011;5553;48.506;8.870;2023-06-01T17:33:06;5.20;;;3.37;;
11000;SDS011;5553;48.506;8.870;2023-06-01T17:35:35;4.17;;;3.77;;
11000;SDS011;5553;48.506;8.870;2023-06-01T17:38:06;4.60;;;3.60;;
11000;SDS011;5553;48.506;8.870;2023-06-01T17:40:57;3.47;;;3.13;;
11000;SDS011;5553;48.506;8.870;2023-06-01T17:43:26;3.93;;;3.20;;
11000;SDS011;5553;48.506;8.870;2023-06-01T17:45:54;4.37;;;3.30;;
11000;SDS011;5553;48.506;8.870;2023-06-01T17:48:25;5.93;;;3.70;;
11000;SDS011;5553;48.506;8.870;2023-06-01T17:50:53;5.93;;;2.73;;
11000;SDS011;5553;48.506;8.870;2023-06-01T17:53:21;4.50;;;2.70;;
11000;SDS011;5553;48.506;8.870;2023-06-01T17:55:50;4.20;;;3.40;;
11000;SDS011;5553;48.506;8.870;2023-06-01T17:58:18;3.30;;;2.90;;
11000;SDS011;5553;48.506;8.870;2023-06-01T18:00:46;4.20;;;3.80;;
11000;SDS011;5553;48.506;8.870;2023-06-01T18:03:14;3.57;;;2.80;;
11000;SDS011;5553;48.506;8.870;2023-06-01T18:05:45;3.67;;;3.33;;
11000;SDS011;5553;48.506;8.870;2023-06-01T18:08:14;5.33;;;2.93;;
11000;SDS011;5553;48.506;8.870;2023-06-01T18:10:42;3.30;;;2.43;;
11000;SDS011;5553;48.506;8.870;2023-06-01T18:13:10;3.10;;;2.53;;
11000;SDS011;5553;48.506;8.870;2023-06-01T18:15:38;2.73;;;2.53;;
11000;SDS011;5553;48.506;8.870;2023-06-01T18:18:07;3.13;;;2.90;;
11000;SDS011;5553;48.506;8.870;2023-06-01T18:20:35;3.40;;;2.27;;
11000;SDS011;5553;48.506;8.870;2023-06-01T18:23:06;3.00;;;2.70;;
11000;SDS011;5553;48.506;8.870;2023-06-01T18:25:34;6.60;;;2.97;;
11000;SDS011;5553;48.506;8.870;2023-06-01T18:28:02;3.97;;;2.70;;
11000;SDS011;5553;48.506;8.870;2023-06-01T18:30:31;3.73;;;3.10;;
11000;SDS011;5553;48.506;8.870;2023-06-01T18:32:59;6.03;;;2.73;;
11000;SDS011;5553;48.506;8.870;2023-06-01T18:35:28;4.57;;;2.80;;
11000;SDS011;5553;48.506;8.870;2023-06-01T18:37:56;3.73;;;2.43;;
11000;SDS011;5553;48.506;8.870;2023-06-01T18:40:27;6.07;;;3.37;;
11000;SDS011;5553;48.506;8.870;2023-06-01T18:42:55;3.90;;;2.83;;
11000;SDS011;5553;48.506;8.870;2023-06-01T18:45:23;3.37;;;2.63;;
11000;SDS011;5553;48.506;8.870;2023-06-01T18:47:52;3.87;;;2.90;;
11000;SDS011;5553;48.506;8.870;2023-06-01T18:50:21;3.13;;;2.83;;
11000;SDS011;5553;48.506;8.870;2023-06-01T18:52:51;4.93;;;4.00;;
11000;SDS011;5553;48.506;8.870;2023-06-01T18:55:19;2.90;;;2.60;;
11000;SDS011;5553;48.506;8.870;2023-06-01T18:57:50;3.50;;;2.90;;
11000;SDS011;5553;48.506;8.870;2023-06-01T19:00:19;3.23;;;2.93;;
11000;SDS011;5553;48.506;8.870;2023-06-01T19:02:48;4.27;;;3.07;;
11000;SDS011;5553;48.506;8.870;2023-06-01T19:05:18;3.50;;;2.50;;
11000;SDS011;5553;48.506;8.870;2023-06-01T19:07:49;3.30;;;3.00;;
11000;SDS011;5553;48.506;8.870;2023-06-01T19:10:21;5.27;;;3.23;;
11000;SDS011;5553;48.506;8.870;2023-06-01T19:13:07;4.33;;;2.50;;
11000;SDS011;5553;48.506;8.870;2023-06-01T19:15:35;6.00;;;2.73;;
11000;SDS011;5553;48.506;8.870;2023-06-01T19:18:03;3.63;;;3.33;;
11000;SDS011;5553;48.506;8.870;2023-06-01T19:23:45;3.87;;;3.33;;
11000;SDS011;5553;48.506;8.870;2023-06-01T19:26:15;4.23;;;3.20;;
11000;SDS011;5553;48.506;8.870;2023-06-01T19:28:47;6.10;;;2.80;;
11000;SDS011;5553;48.506;8.870;2023-06-01T19:33:47;4.67;;;3.30;;
11000;SDS011;5553;48.506;8.870;2023-06-01T19:39:24;6.20;;;3.47;;
11000;SDS011;5553;48.506;8.870;2023-06-01T19:41:55;5.40;;;3.30;;
11000;SDS011;5553;48.506;8.870;2023-06-01T19:44:29;3.90;;;3.33;;
11000;SDS011;5553;48.506;8.870;2023-06-01T19:46:58;3.57;;;3.17;;
11000;SDS011;5553;48.506;8.870;2023-06-01T19:49:30;3.80;;;3.03;;
11000;SDS011;5553;48.506;8.870;2023-06-01T19:52:03;3.93;;;3.57;;
11000;SDS011;5553;48.506;8.870;2023-06-01T19:54:32;7.13;;;3.50;;
11000;SDS011;5553;48.506;8.870;2023-06-01T19:57:01;5.17;;;3.20;;
11000;SDS011;5553;48.506;8.870;2023-06-01T19:59:33;5.00;;;3.10;;
11000;SDS011;5553;48.506;8.870;2023-06-01T20:02:01;5.47;;;3.90;;
11000;SDS011;5553;48.506;8.870;2023-06-01T20:04:30;5.97;;;3.87;;
11000;SDS011;5553;48.506;8.870;2023-06-01T20:07:00;8.03;;;3.27;;
11000;SDS011;5553;48.506;8.870;2023-06-01T20:09:29;5.23;;;2.97;;
11000;SDS011;5553;48.506;8.870;2023-06-01T20:11:57;4.80;;;3.43;;
11000;SDS011;5553;48.506;8.870;2023-06-01T20:14:26;7.30;;;3.20;;
11000;SDS011;5553;48.506;8.870;2023-06-01T20:16:59;5.00;;;3.33;;
11000;SDS011;5553;48.506;8.870;2023-06-01T20:19:29;4.50;;;3.80;;
11000;SDS011;5553;48.506;8.870;2023-06-01T20:21:59;4.67;;;3.93;;
11000;SDS011;5553;48.506;8.870;2023-06-01T20:24:29;4.40;;;3.60;;
11000;SDS011;5553;48.506;8.870;2023-06-01T20:26:58;4.93;;;3.60;;
11000;SDS011;5553;48.506;8.870;2023-06-01T20:29:28;3.70;;;3.40;;
11000;SDS011;5553;48.506;8.870;2023-06-01T20:32:01;7.43;;;4.10;;
11000;SDS011;5553;48.506;8.870;2023-06-01T20:34:30;5.20;;;3.90;;
11000;SDS011;5553;48.506;8.870;2023-06-01T20:37:00;4.20;;;3.73;;
11000;SDS011;5553;48.506;8.870;2023-06-01T20:39:29;5.77;;;3.90;;
11000;SDS011;5553;48.506;8.870;2023-06-01T20:41:57;5.83;;;4.20;;
11000;SDS011;5553;48.506;8.870;2023-06-01T20:44:26;5.20;;;4.17;;
11000;SDS011;5553;48.506;8.870;2023-06-01T20:46:55;8.00;;;4.30;;
11000;SDS011;5553;48.506;8.870;2023-06-01T20:49:26;5.40;;;4.30;;
11000;SDS011;5553;48.506;8.870;2023-06-01T20:51:56;4.20;;;3.80;;
11000;SDS011;5553;48.506;8.870;2023-06-01T20:54:25;5.70;;;4.33;;
11000;SDS011;5553;48.506;8.870;2023-06-01T20:56:56;4.13;;;3.73;;
11000;SDS011;5553;48.506;8.870;2023-06-01T20:59:25;4.50;;;3.67;;
11000;SDS011;5553;48.506;8.870;2023-06-01T21:01:55;10.13;;;3.77;;
11000;SDS011;5553;48.506;8.870;2023-06-01T21:04:28;5.13;;;3.60;;
11000;SDS011;5553;48.506;8.870;2023-06-01T21:06:57;3.37;;;3.07;;
11000;SDS011;5553;48.506;8.870;2023-06-01T21:09:26;5.30;;;4.43;;
11000;SDS011;5553;48.506;8.870;2023-06-01T21:11:54;3.80;;;3.40;;
11000;SDS011;5553;48.506;8.870;2023-06-01T21:14:23;4.60;;;3.57;;
11000;SDS011;5553;48.506;8.870;2023-06-01T21:16:52;6.20;;;3.37;;
11000;SDS011;5553;48.506;8.870;2023-06-01T21:19:20;4.00;;;3.47;;
11000;SDS011;5553;48.506;8.870;2023-06-01T21:21:51;3.60;;;3.20;;
11000;SDS011;5553;48.506;8.870;2023-06-01T21:24:19;6.73;;;3.60;;
11000;SDS011;5553;48.506;8.870;2023-06-01T21:26:47;5.63;;;3.80;;
11000;SDS011;5553;48.506;8.870;2023-06-01T21:29:16;4.87;;;3.80;;
11000;SDS011;5553;48.506;8.870;2023-06-01T21:31:44;4.10;;;3.57;;
11000;SDS011;5553;48.506;8.870;2023-06-01T21:34:12;5.00;;;3.40;;
11000;SDS011;5553;48.506;8.870;2023-06-01T21:36:40;4.40;;;2.97;;
11000;SDS011;5553;48.506;8.870;2023-06-01T21:39:11;3.60;;;3.30;;
11000;SDS011;5553;48.506;8.870;2023-06-01T21:41:39;5.43;;;3.23;;
11000;SDS011;5553;48.506;8.870;2023-06-01T21:44:08;3.80;;;3.13;;
11000;SDS011;5553;48.506;8.870;2023-06-01T21:46:36;4.97;;;3.50;;
11000;SDS011;5553;48.506;8.870;2023-06-01T21:49:04;4.37;;;3.23;;
11000;SDS011;5553;48.506;8.870;2023-06-01T21:51:33;3.43;;;3.10;;
11000;SDS011;5553;48.506;8.870;2023-06-01T21:54:01;6.10;;;3.90;;
11000;SDS011;5553;48.506;8.870;2023-06-01T21:56:32;5.23;;;4.03;;
11000;SDS011;5553;48.506;8.870;2023-06-01T21:59:00;8.10;;;4.43;;
11000;SDS011;5553;48.506;8.870;2023-06-01T22:01:29;6.03;;;4.70;;
11000;SDS011;5553;48.506;8.870;2023-06-01T22:03:57;4.57;;;4.13;;
11000;SDS011;5553;48.506;8.870;2023-06-01T22:06:25;6.13;;;4.73;;
11000;SDS011;5553;48.506;8.870;2023-06-01T22:08:54;4.90;;;3.97;;
11000;SDS011;5553;48.506;8.870;2023-06-01T22:11:22;5.10;;;3.90;;
11000;SDS011;5553;48.506;8.870;2023-06-01T22:13:54;8.00;;;4.60;;
11000;SDS011;5553;48.506;8.870;2023-06-01T22:16:22;4.50;;;3.33;;
11000;SDS011;5553;48.506;8.870;2023-06-01T22:18:50;4.80;;;3.63;;
11000;SDS011;5553;48.506;8.870;2023-06-01T22:21:19;5.07;;;3.40;;
11000;SDS011;5553;48.506;8.870;2023-06-01T22:23:47;3.97;;;3.57;;
11000;SDS011;5553;48.506;8.870;2023-06-01T22:26:15;3.90;;;3.13;;
11000;SDS011;5553;48.506;8.870;2023-06-01T22:28:43;5.07;;;3.40;;
11000;SDS011;5553;48.506;8.870;2023-06-01T22:31:14;6.17;;;3.00;;
11000;SDS011;5553;48.506;8.870;2023-06-01T22:33:42;5.93;;;3.47;;
11000;SDS011;5553;48.506;8.870;2023-06-01T22:36:11;8.23;;;3.60;;
11000;SDS011;5553;48.506;8.870;2023-06-01T22:38:39;6.03;;;3.87;;
11000;SDS011;5553;48.506;8.870;2023-06-01T22:41:08;4.80;;;4.30;;
11000;SDS011;5553;48.506;8.870;2023-06-01T22:43:37;14.30;;;5.60;;
11000;SDS011;5553;48.506;8.870;2023-06-01T22:46:05;10.60;;;5.10;;
11000;SDS011;5553;48.506;8.870;2023-06-01T22:48:36;7.00;;;5.00;;
11000;SDS011;5553;48.506;8.870;2023-06-01T22:51:05;5.73;;;4.83;;
11000;SDS011;5553;48.506;8.870;2023-06-01T22:53:33;6.90;;;5.10;;
11000;SDS011;5553;48.506;8.870;2023-06-01T22:56:03;7.80;;;5.67;;
11000;SDS011;5553;48.506;8.870;2023-06-01T22:58:32;8.40;;;6.03;;
11000;SDS011;5553;48.506;8.870;2023-06-01T23:01:00;8.20;;;5.33;;
11000;SDS011;5553;48.506;8.870;2023-06-01T23:03:30;8.60;;;4.77;;
11000;SDS011;5553;48.506;8.870;2023-06-01T23:06:01;12.37;;;5.20;;
11000;SDS011;5553;48.506;8.870;2023-06-01T23:08:31;8.17;;;5.93;;
11000;SDS011;5553;48.506;8.870;2023-06-01T23:11:01;8.53;;;5.80;;
11000;SDS011;5553;48.506;8.870;2023-06-01T23:13:33;5.80;;;4.40;;
11000;SDS011;5553;48.506;8.870;2023-06-01T23:16:06;6.57;;;4.57;;
11000;SDS011;5553;48.506;8.870;2023-06-01T23:18:37;7.90;;;5.40;;
11000;SDS011;5553;48.506;8.870;2023-06-01T23:21:08;9.53;;;5.70;;
11000;SDS011;5553;48.506;8.870;2023-06-01T23:23:39;10.50;;;5.63;;
11000;SDS011;5553;48.506;8.870;2023-06-01T23:26:09;8.10;;;5.43;;
11000;SDS011;5553;48.506;8.870;2023-06-01T23:28:50;7.63;;;5.60;;
11000;SDS011;5553;48.506;8.870;2023-06-01T23:31:20;5.83;;;5.23;;
11000;SDS011;5553;48.506;8.870;2023-06-01T23:33:49;11.30;;;5.20;;
11000;SDS011;5553;48.506;8.870;2023-06-01T23:36:23;7.20;;;5.13;;
11000;SDS011;5553;48.506;8.870;2023-06-01T23:38:52;8.23;;;5.80;;
11000;SDS011;5553;48.506;8.870;2023-06-01T23:41:21;8.37;;;5.67;;
11000;SDS011;5553;48.506;8.870;2023-06-01T23:43:50;7.90;;;5.23;;